sensor_id;sensor_type;location;lat;lon;timestamp;temperature;humidity
19829;DHT22;10075;50.924;4.396;2023-07-08T00:00:19;22.40;91.40
19829;DHT22;10075;50.924;4.396;2023-07-08T00:02:48;22.30;91.90
19829;DHT22;10075;50.924;4.396;2023-07-08T00:05:17;22.30;92.10
19829;DHT22;10075;50.924;4.396;2023-07-08T00:07:45;22.20;92.10
19829;DHT22;10075;50.924;4.396;2023-07-08T00:10:14;22.10;92.10
19829;DHT22;10075;50.924;4.396;2023-07-08T00:12:42;22.10;91.90
19829;DHT22;10075;50.924;4.396;2023-07-08T00:15:10;22.10;91.80
19829;DHT22;10075;50.924;4.396;2023-07-08T00:17:37;22.00;92.10
19829;DHT22;10075;50.924;4.396;2023-07-08T00:20:21;22.00;92.30
19829;DHT22;10075;50.924;4.396;2023-07-08T00:22:48;22.00;92.40
19829;DHT22;10075;50.924;4.396;2023-07-08T00:25:16;21.90;92.40
19829;DHT22;10075;50.924;4.396;2023-07-08T00:27:45;21.90;92.70
19829;DHT22;10075;50.924;4.396;2023-07-08T00:30:19;21.80;92.60
19829;DHT22;10075;50.924;4.396;2023-07-08T00:32:47;21.90;92.70
19829;DHT22;10075;50.924;4.396;2023-07-08T00:35:21;21.80;92.90
19829;DHT22;10075;50.924;4.396;2023-07-08T00:37:51;21.80;93.00
19829;DHT22;10075;50.924;4.396;2023-07-08T00:40:20;21.70;92.80
19829;DHT22;10075;50.924;4.396;2023-07-08T00:42:48;21.70;92.60
19829;DHT22;10075;50.924;4.396;2023-07-08T00:45:39;21.70;92.90
19829;DHT22;10075;50.924;4.396;2023-07-08T00:48:19;21.60;92.80
19829;DHT22;10075;50.924;4.396;2023-07-08T00:50:50;21.60;92.90
19829;DHT22;10075;50.924;4.396;2023-07-08T00:53:26;21.60;92.90
19829;DHT22;10075;50.924;4.396;2023-07-08T00:55:57;21.60;92.80
19829;DHT22;10075;50.924;4.396;2023-07-08T00:58:32;21.50;92.80
19829;DHT22;10075;50.924;4.396;2023-07-08T01:01:01;21.50;92.80
19829;DHT22;10075;50.924;4.396;2023-07-08T01:03:31;21.50;92.90
19829;DHT22;10075;50.924;4.396;2023-07-08T01:05:59;21.50;93.00
19829;DHT22;10075;50.924;4.396;2023-07-08T01:08:28;21.50;93.20
19829;DHT22;10075;50.924;4.396;2023-07-08T01:11:01;21.40;93.30
19829;DHT22;10075;50.924;4.396;2023-07-08T01:13:31;21.40;93.50
19829;DHT22;10075;50.924;4.396;2023-07-08T01:15:59;21.40;93.80
19829;DHT22;10075;50.924;4.396;2023-07-08T01:18:26;21.40;94.10
19829;DHT22;10075;50.924;4.396;2023-07-08T01:20:53;21.30;94.20
19829;DHT22;10075;50.924;4.396;2023-07-08T01:23:23;21.30;94.40
19829;DHT22;10075;50.924;4.396;2023-07-08T01:25:51;21.30;94.30
19829;DHT22;10075;50.924;4.396;2023-07-08T01:28:18;21.20;94.50
19829;DHT22;10075;50.924;4.396;2023-07-08T01:30:46;21.20;94.70
19829;DHT22;10075;50.924;4.396;2023-07-08T01:33:17;21.10;94.80
19829;DHT22;10075;50.924;4.396;2023-07-08T01:35:46;21.10;94.90
19829;DHT22;10075;50.924;4.396;2023-07-08T01:38:17;21.10;95.20
19829;DHT22;10075;50.924;4.396;2023-07-08T01:40:50;21.10;95.50
19829;DHT22;10075;50.924;4.396;2023-07-08T01:43:18;21.00;95.70
19829;DHT22;10075;50.924;4.396;2023-07-08T01:45:46;20.90;96.10
19829;DHT22;10075;50.924;4.396;2023-07-08T01:48:15;20.90;96.30
19829;DHT22;10075;50.924;4.396;2023-07-08T01:50:45;20.80;96.40
19829;DHT22;10075;50.924;4.396;2023-07-08T01:53:16;20.80;96.60
19829;DHT22;10075;50.924;4.396;2023-07-08T01:55:43;20.70;96.70
19829;DHT22;10075;50.924;4.396;2023-07-08T01:58:11;20.70;96.80
19829;DHT22;10075;50.924;4.396;2023-07-08T02:00:38;20.70;96.90
19829;DHT22;10075;50.924;4.396;2023-07-08T02:03:05;20.60;97.00
19829;DHT22;10075;50.924;4.396;2023-07-08T02:05:32;20.60;97.00
19829;DHT22;10075;50.924;4.396;2023-07-08T02:07:59;20.50;97.20
19829;DHT22;10075;50.924;4.396;2023-07-08T02:10:26;20.50;97.30
19829;DHT22;10075;50.924;4.396;2023-07-08T02:12:53;20.50;97.20
19829;DHT22;10075;50.924;4.396;2023-07-08T02:15:21;20.40;97.20
19829;DHT22;10075;50.924;4.396;2023-07-08T02:17:48;20.40;97.30
19829;DHT22;10075;50.924;4.396;2023-07-08T02:20:16;20.40;97.40
19829;DHT22;10075;50.924;4.396;2023-07-08T02:22:43;20.40;97.60
19829;DHT22;10075;50.924;4.396;2023-07-08T02:25:10;20.30;97.80
19829;DHT22;10075;50.924;4.396;2023-07-08T02:27:37;20.20;97.90
19829;DHT22;10075;50.924;4.396;2023-07-08T02:30:05;20.20;98.00
19829;DHT22;10075;50.924;4.396;2023-07-08T02:32:34;20.10;98.20
19829;DHT22;10075;50.924;4.396;2023-07-08T02:35:01;20.00;98.50
19829;DHT22;10075;50.924;4.396;2023-07-08T02:37:28;20.00;98.70
19829;DHT22;10075;50.924;4.396;2023-07-08T02:39:56;19.90;98.80
19829;DHT22;10075;50.924;4.396;2023-07-08T02:42:23;19.80;98.90
19829;DHT22;10075;50.924;4.396;2023-07-08T02:44:50;19.80;99.20
19829;DHT22;10075;50.924;4.396;2023-07-08T02:47:17;19.70;99.30
19829;DHT22;10075;50.924;4.396;2023-07-08T02:49:45;19.70;99.50
19829;DHT22;10075;50.924;4.396;2023-07-08T02:52:12;19.60;99.70
19829;DHT22;10075;50.924;4.396;2023-07-08T02:54:39;19.60;99.90
19829;DHT22;10075;50.924;4.396;2023-07-08T02:57:06;19.50;99.90
19829;DHT22;10075;50.924;4.396;2023-07-08T02:59:33;19.50;99.90
19829;DHT22;10075;50.924;4.396;2023-07-08T03:02:00;19.40;99.90
19829;DHT22;10075;50.924;4.396;2023-07-08T03:04:27;19.40;99.90
19829;DHT22;10075;50.924;4.396;2023-07-08T03:06:57;19.40;99.90
19829;DHT22;10075;50.924;4.396;2023-07-08T03:09:24;19.40;99.90
19829;DHT22;10075;50.924;4.396;2023-07-08T03:11:52;19.40;99.90
19829;DHT22;10075;50.924;4.396;2023-07-08T03:14:19;19.40;99.90
19829;DHT22;10075;50.924;4.396;2023-07-08T03:16:45;19.30;99.90
19829;DHT22;10075;50.924;4.396;2023-07-08T03:19:12;19.30;99.90
19829;DHT22;10075;50.924;4.396;2023-07-08T03:21:40;19.30;99.90
19829;DHT22;10075;50.924;4.396;2023-07-08T03:24:11;19.30;99.90
19829;DHT22;10075;50.924;4.396;2023-07-08T03:26:38;19.30;99.90
19829;DHT22;10075;50.924;4.396;2023-07-08T03:29:05;19.40;99.90
19829;DHT22;10075;50.924;4.396;2023-07-08T03:31:32;19.40;99.90
19829;DHT22;10075;50.924;4.396;2023-07-08T03:33:59;19.40;99.90
19829;DHT22;10075;50.924;4.396;2023-07-08T03:36:26;19.40;99.90
19829;DHT22;10075;50.924;4.396;2023-07-08T03:38:56;19.50;99.90
19829;DHT22;10075;50.924;4.396;2023-07-08T03:41:25;19.50;99.90
19829;DHT22;10075;50.924;4.396;2023-07-08T03:43:52;19.50;99.90
19829;DHT22;10075;50.924;4.396;2023-07-08T03:46:20;19.50;99.90
19829;DHT22;10075;50.924;4.396;2023-07-08T03:48:48;19.60;99.90
19829;DHT22;10075;50.924;4.396;2023-07-08T03:51:20;19.60;99.90
19829;DHT22;10075;50.924;4.396;2023-07-08T03:53:48;19.50;99.90
19829;DHT22;10075;50.924;4.396;2023-07-08T03:56:15;19.50;99.90
19829;DHT22;10075;50.924;4.396;2023-07-08T03:58:43;19.50;99.90
19829;DHT22;10075;50.924;4.396;2023-07-08T04:01:14;19.50;99.90
19829;DHT22;10075;50.924;4.396;2023-07-08T04:03:42;19.40;99.90
19829;DHT22;10075;50.924;4.396;2023-07-08T04:06:09;19.40;99.90
19829;DHT22;10075;50.924;4.396;2023-07-08T04:08:36;19.40;99.90
19829;DHT22;10075;50.924;4.396;2023-07-08T04:11:03;19.30;99.90
19829;DHT22;10075;50.924;4.396;2023-07-08T04:13:31;19.30;99.90
19829;DHT22;10075;50.924;4.396;2023-07-08T04:16:02;19.30;99.90
19829;DHT22;10075;50.924;4.396;2023-07-08T04:18:30;19.30;99.90
19829;DHT22;10075;50.924;4.396;2023-07-08T04:20:56;19.40;99.90
19829;DHT22;10075;50.924;4.396;2023-07-08T04:23:25;19.40;99.90
19829;DHT22;10075;50.924;4.396;2023-07-08T04:25:55;19.40;99.90
19829;DHT22;10075;50.924;4.396;2023-07-08T04:28:22;19.40;99.90
19829;DHT22;10075;50.924;4.396;2023-07-08T04:30:49;19.50;99.90
19829;DHT22;10075;50.924;4.396;2023-07-08T04:33:18;19.50;99.90
19829;DHT22;10075;50.924;4.396;2023-07-08T04:35:45;19.50;99.90
19829;DHT22;10075;50.924;4.396;2023-07-08T04:38:16;19.60;99.90
19829;DHT22;10075;50.924;4.396;2023-07-08T04:40:43;19.60;99.90
19829;DHT22;10075;50.924;4.396;2023-07-08T04:43:10;19.70;99.90
19829;DHT22;10075;50.924;4.396;2023-07-08T04:45:38;19.70;99.90
19829;DHT22;10075;50.924;4.396;2023-07-08T04:48:05;19.80;99.90
19829;DHT22;10075;50.924;4.396;2023-07-08T04:50:39;19.80;99.90
19829;DHT22;10075;50.924;4.396;2023-07-08T04:53:06;19.90;99.90
19829;DHT22;10075;50.924;4.396;2023-07-08T04:55:34;20.00;99.90
19829;DHT22;10075;50.924;4.396;2023-07-08T04:58:01;20.00;99.90
19829;DHT22;10075;50.924;4.396;2023-07-08T05:00:29;20.00;99.90
19829;DHT22;10075;50.924;4.396;2023-07-08T05:02:56;20.10;99.90
19829;DHT22;10075;50.924;4.396;2023-07-08T05:05:23;20.10;99.90
19829;DHT22;10075;50.924;4.396;2023-07-08T05:07:51;20.10;99.90
19829;DHT22;10075;50.924;4.396;2023-07-08T05:10:19;20.10;99.90
19829;DHT22;10075;50.924;4.396;2023-07-08T05:12:46;20.20;99.90
19829;DHT22;10075;50.924;4.396;2023-07-08T05:15:14;20.30;99.90
19829;DHT22;10075;50.924;4.396;2023-07-08T05:17:42;20.30;99.90
19829;DHT22;10075;50.924;4.396;2023-07-08T05:20:11;20.30;99.90
19829;DHT22;10075;50.924;4.396;2023-07-08T05:22:39;20.50;99.90
19829;DHT22;10075;50.924;4.396;2023-07-08T05:25:13;20.50;99.90
19829;DHT22;10075;50.924;4.396;2023-07-08T05:27:41;20.60;99.90
19829;DHT22;10075;50.924;4.396;2023-07-08T05:30:13;20.70;99.90
19829;DHT22;10075;50.924;4.396;2023-07-08T05:32:40;20.80;99.90
19829;DHT22;10075;50.924;4.396;2023-07-08T05:35:08;20.80;99.90
19829;DHT22;10075;50.924;4.396;2023-07-08T05:37:35;20.90;99.90
19829;DHT22;10075;50.924;4.396;2023-07-08T05:40:02;21.10;99.90
19829;DHT22;10075;50.924;4.396;2023-07-08T05:42:31;21.20;99.90
19829;DHT22;10075;50.924;4.396;2023-07-08T05:44:58;21.30;99.90
19829;DHT22;10075;50.924;4.396;2023-07-08T05:47:26;21.40;99.90
19829;DHT22;10075;50.924;4.396;2023-07-08T05:49:53;21.50;99.80
19829;DHT22;10075;50.924;4.396;2023-07-08T05:52:20;21.60;99.50
19829;DHT22;10075;50.924;4.396;2023-07-08T05:54:47;21.70;99.30
19829;DHT22;10075;50.924;4.396;2023-07-08T05:57:13;21.70;99.30
19829;DHT22;10075;50.924;4.396;2023-07-08T05:59:42;21.80;99.20
19829;DHT22;10075;50.924;4.396;2023-07-08T06:02:11;21.90;99.00
19829;DHT22;10075;50.924;4.396;2023-07-08T06:04:39;22.00;98.80
19829;DHT22;10075;50.924;4.396;2023-07-08T06:07:06;22.00;98.70
19829;DHT22;10075;50.924;4.396;2023-07-08T06:09:33;22.10;98.40
19829;DHT22;10075;50.924;4.396;2023-07-08T06:12:00;22.20;98.30
19829;DHT22;10075;50.924;4.396;2023-07-08T06:14:27;22.30;98.00
19829;DHT22;10075;50.924;4.396;2023-07-08T06:16:58;22.40;98.20
19829;DHT22;10075;50.924;4.396;2023-07-08T06:19:25;22.50;97.80
19829;DHT22;10075;50.924;4.396;2023-07-08T06:21:52;22.60;97.70
19829;DHT22;10075;50.924;4.396;2023-07-08T06:24:19;22.70;97.50
19829;DHT22;10075;50.924;4.396;2023-07-08T06:26:46;22.80;97.50
19829;DHT22;10075;50.924;4.396;2023-07-08T06:29:13;22.90;97.50
19829;DHT22;10075;50.924;4.396;2023-07-08T06:31:41;22.90;97.20
19829;DHT22;10075;50.924;4.396;2023-07-08T06:34:09;23.00;97.10
19829;DHT22;10075;50.924;4.396;2023-07-08T06:36:36;23.10;96.90
19829;DHT22;10075;50.924;4.396;2023-07-08T06:39:03;23.20;97.00
19829;DHT22;10075;50.924;4.396;2023-07-08T06:41:32;23.20;96.80
19829;DHT22;10075;50.924;4.396;2023-07-08T06:43:59;23.30;96.80
19829;DHT22;10075;50.924;4.396;2023-07-08T06:46:26;23.40;96.70
19829;DHT22;10075;50.924;4.396;2023-07-08T06:48:53;23.60;96.60
19829;DHT22;10075;50.924;4.396;2023-07-08T06:51:22;23.60;96.40
19829;DHT22;10075;50.924;4.396;2023-07-08T06:53:49;23.70;97.00
19829;DHT22;10075;50.924;4.396;2023-07-08T06:56:16;23.80;97.30
19829;DHT22;10075;50.924;4.396;2023-07-08T06:58:43;23.90;97.20
19829;DHT22;10075;50.924;4.396;2023-07-08T07:01:10;23.90;97.10
19829;DHT22;10075;50.924;4.396;2023-07-08T07:03:37;23.90;97.20
19829;DHT22;10075;50.924;4.396;2023-07-08T07:06:04;23.90;97.20
19829;DHT22;10075;50.924;4.396;2023-07-08T07:08:32;24.00;97.10
19829;DHT22;10075;50.924;4.396;2023-07-08T07:10:59;24.10;96.90
19829;DHT22;10075;50.924;4.396;2023-07-08T07:13:26;24.20;96.60
19829;DHT22;10075;50.924;4.396;2023-07-08T07:15:53;24.40;96.60
19829;DHT22;10075;50.924;4.396;2023-07-08T07:18:20;24.50;96.50
19829;DHT22;10075;50.924;4.396;2023-07-08T07:20:49;24.60;96.50
19829;DHT22;10075;50.924;4.396;2023-07-08T07:23:16;24.70;96.30
19829;DHT22;10075;50.924;4.396;2023-07-08T07:25:45;24.90;96.00
19829;DHT22;10075;50.924;4.396;2023-07-08T07:28:14;25.00;95.90
19829;DHT22;10075;50.924;4.396;2023-07-08T07:30:42;25.00;95.80
19829;DHT22;10075;50.924;4.396;2023-07-08T07:33:09;25.10;95.70
19829;DHT22;10075;50.924;4.396;2023-07-08T07:35:40;25.20;95.80
19829;DHT22;10075;50.924;4.396;2023-07-08T07:38:08;25.30;95.60
19829;DHT22;10075;50.924;4.396;2023-07-08T07:40:34;25.40;95.30
19829;DHT22;10075;50.924;4.396;2023-07-08T07:43:03;25.50;95.20
19829;DHT22;10075;50.924;4.396;2023-07-08T07:45:30;25.60;95.10
19829;DHT22;10075;50.924;4.396;2023-07-08T07:47:57;25.70;94.90
19829;DHT22;10075;50.924;4.396;2023-07-08T07:50:24;25.80;94.60
19829;DHT22;10075;50.924;4.396;2023-07-08T07:52:51;25.80;94.50
19829;DHT22;10075;50.924;4.396;2023-07-08T07:55:18;25.90;94.40
19829;DHT22;10075;50.924;4.396;2023-07-08T07:57:45;26.00;94.30
19829;DHT22;10075;50.924;4.396;2023-07-08T08:00:14;26.10;94.30
19829;DHT22;10075;50.924;4.396;2023-07-08T08:02:41;26.20;94.00
19829;DHT22;10075;50.924;4.396;2023-07-08T08:05:08;26.20;93.50
19829;DHT22;10075;50.924;4.396;2023-07-08T08:07:35;26.30;93.30
19829;DHT22;10075;50.924;4.396;2023-07-08T08:10:03;26.40;93.20
19829;DHT22;10075;50.924;4.396;2023-07-08T08:12:30;26.50;93.50
19829;DHT22;10075;50.924;4.396;2023-07-08T08:14:57;26.60;94.00
19829;DHT22;10075;50.924;4.396;2023-07-08T08:17:25;26.70;93.70
19829;DHT22;10075;50.924;4.396;2023-07-08T08:19:52;26.80;93.40
19829;DHT22;10075;50.924;4.396;2023-07-08T08:22:19;26.90;93.30
19829;DHT22;10075;50.924;4.396;2023-07-08T08:24:46;27.00;93.30
19829;DHT22;10075;50.924;4.396;2023-07-08T08:27:13;27.10;93.20
19829;DHT22;10075;50.924;4.396;2023-07-08T08:29:40;27.30;92.20
19829;DHT22;10075;50.924;4.396;2023-07-08T08:32:08;27.40;91.30
19829;DHT22;10075;50.924;4.396;2023-07-08T08:34:36;27.50;90.50
19829;DHT22;10075;50.924;4.396;2023-07-08T08:37:03;27.70;89.60
19829;DHT22;10075;50.924;4.396;2023-07-08T08:39:30;27.80;89.10
19829;DHT22;10075;50.924;4.396;2023-07-08T08:41:57;27.90;88.20
19829;DHT22;10075;50.924;4.396;2023-07-08T08:44:28;27.90;87.50
19829;DHT22;10075;50.924;4.396;2023-07-08T08:47:02;28.10;85.60
19829;DHT22;10075;50.924;4.396;2023-07-08T08:49:37;28.20;87.00
19829;DHT22;10075;50.924;4.396;2023-07-08T08:52:06;28.30;86.90
19829;DHT22;10075;50.924;4.396;2023-07-08T08:54:33;28.40;87.20
19829;DHT22;10075;50.924;4.396;2023-07-08T08:57:22;28.60;88.00
19829;DHT22;10075;50.924;4.396;2023-07-08T08:59:54;28.70;87.10
19829;DHT22;10075;50.924;4.396;2023-07-08T09:02:31;28.70;85.00
19829;DHT22;10075;50.924;4.396;2023-07-08T09:05:03;28.90;84.30
19829;DHT22;10075;50.924;4.396;2023-07-08T09:07:33;29.00;82.90
19829;DHT22;10075;50.924;4.396;2023-07-08T09:10:04;29.00;82.10
19829;DHT22;10075;50.924;4.396;2023-07-08T09:12:34;29.10;81.30
19829;DHT22;10075;50.924;4.396;2023-07-08T09:15:11;29.20;80.90
19829;DHT22;10075;50.924;4.396;2023-07-08T09:17:38;29.30;79.50
19829;DHT22;10075;50.924;4.396;2023-07-08T09:20:17;29.40;78.00
19829;DHT22;10075;50.924;4.396;2023-07-08T09:22:53;29.50;79.70
19829;DHT22;10075;50.924;4.396;2023-07-08T09:25:25;29.60;79.20
19829;DHT22;10075;50.924;4.396;2023-07-08T09:27:53;29.70;77.00
19829;DHT22;10075;50.924;4.396;2023-07-08T09:30:22;29.80;77.50
19829;DHT22;10075;50.924;4.396;2023-07-08T09:32:50;29.80;76.80
19829;DHT22;10075;50.924;4.396;2023-07-08T09:35:22;29.80;76.20
19829;DHT22;10075;50.924;4.396;2023-07-08T09:37:50;29.90;76.00
19829;DHT22;10075;50.924;4.396;2023-07-08T09:40:20;30.00;75.80
19829;DHT22;10075;50.924;4.396;2023-07-08T09:42:51;30.00;75.50
19829;DHT22;10075;50.924;4.396;2023-07-08T09:45:20;30.20;73.80
19829;DHT22;10075;50.924;4.396;2023-07-08T09:47:51;30.30;73.00
19829;DHT22;10075;50.924;4.396;2023-07-08T09:50:22;30.30;73.40
19829;DHT22;10075;50.924;4.396;2023-07-08T09:52:51;30.40;74.10
19829;DHT22;10075;50.924;4.396;2023-07-08T09:55:20;30.40;74.10
19829;DHT22;10075;50.924;4.396;2023-07-08T09:57:48;30.50;74.10
19829;DHT22;10075;50.924;4.396;2023-07-08T10:00:19;30.60;73.20
19829;DHT22;10075;50.924;4.396;2023-07-08T10:02:51;30.70;73.30
19829;DHT22;10075;50.924;4.396;2023-07-08T10:05:23;30.70;73.90
19829;DHT22;10075;50.924;4.396;2023-07-08T10:07:53;30.80;71.20
19829;DHT22;10075;50.924;4.396;2023-07-08T10:10:26;30.90;70.40
19829;DHT22;10075;50.924;4.396;2023-07-08T10:12:58;31.00;69.70
19829;DHT22;10075;50.924;4.396;2023-07-08T10:15:31;31.00;70.50
19829;DHT22;10075;50.924;4.396;2023-07-08T10:17:59;31.10;70.50
19829;DHT22;10075;50.924;4.396;2023-07-08T10:20:36;31.10;68.20
19829;DHT22;10075;50.924;4.396;2023-07-08T10:23:20;31.10;67.60
19829;DHT22;10075;50.924;4.396;2023-07-08T10:25:55;31.20;67.40
19829;DHT22;10075;50.924;4.396;2023-07-08T10:28:31;31.30;68.30
19829;DHT22;10075;50.924;4.396;2023-07-08T10:31:11;31.30;67.80
19829;DHT22;10075;50.924;4.396;2023-07-08T10:33:52;31.40;68.30
19829;DHT22;10075;50.924;4.396;2023-07-08T10:36:29;31.50;67.20
19829;DHT22;10075;50.924;4.396;2023-07-08T10:39:18;31.60;66.80
19829;DHT22;10075;50.924;4.396;2023-07-08T10:41:53;31.60;68.00
19829;DHT22;10075;50.924;4.396;2023-07-08T10:44:27;31.70;67.80
19829;DHT22;10075;50.924;4.396;2023-07-08T10:47:05;31.70;66.70
19829;DHT22;10075;50.924;4.396;2023-07-08T10:49:50;31.80;66.90
19829;DHT22;10075;50.924;4.396;2023-07-08T10:52:35;31.90;66.80
19829;DHT22;10075;50.924;4.396;2023-07-08T10:55:17;31.90;64.80
19829;DHT22;10075;50.924;4.396;2023-07-08T10:58:01;31.90;66.80
19829;DHT22;10075;50.924;4.396;2023-07-08T11:00:33;32.00;67.70
19829;DHT22;10075;50.924;4.396;2023-07-08T11:06:06;32.20;66.90
19829;DHT22;10075;50.924;4.396;2023-07-08T11:08:40;32.20;65.90
19829;DHT22;10075;50.924;4.396;2023-07-08T11:11:15;32.30;66.70
19829;DHT22;10075;50.924;4.396;2023-07-08T11:13:52;32.30;67.00
19829;DHT22;10075;50.924;4.396;2023-07-08T11:16:24;32.40;66.30
19829;DHT22;10075;50.924;4.396;2023-07-08T11:18:54;32.50;65.80
19829;DHT22;10075;50.924;4.396;2023-07-08T11:21:26;32.60;66.20
19829;DHT22;10075;50.924;4.396;2023-07-08T11:24:02;32.60;66.10
19829;DHT22;10075;50.924;4.396;2023-07-08T11:26:33;32.60;66.80
19829;DHT22;10075;50.924;4.396;2023-07-08T11:29:05;32.60;65.90
19829;DHT22;10075;50.924;4.396;2023-07-08T11:31:36;32.70;66.00
19829;DHT22;10075;50.924;4.396;2023-07-08T11:34:03;32.80;66.20
19829;DHT22;10075;50.924;4.396;2023-07-08T11:36:32;32.90;66.40
19829;DHT22;10075;50.924;4.396;2023-07-08T11:39:01;33.00;66.80
19829;DHT22;10075;50.924;4.396;2023-07-08T11:41:31;33.10;66.90
19829;DHT22;10075;50.924;4.396;2023-07-08T11:43:59;33.30;68.30
19829;DHT22;10075;50.924;4.396;2023-07-08T11:46:30;33.40;68.00
19829;DHT22;10075;50.924;4.396;2023-07-08T11:49:02;33.50;66.00
19829;DHT22;10075;50.924;4.396;2023-07-08T11:51:31;33.60;67.10
19829;DHT22;10075;50.924;4.396;2023-07-08T11:54:11;33.70;67.20
19829;DHT22;10075;50.924;4.396;2023-07-08T11:56:48;33.90;67.80
19829;DHT22;10075;50.924;4.396;2023-07-08T11:59:18;34.00;67.60
19829;DHT22;10075;50.924;4.396;2023-07-08T12:01:48;34.10;67.00
19829;DHT22;10075;50.924;4.396;2023-07-08T12:04:27;34.30;66.50
19829;DHT22;10075;50.924;4.396;2023-07-08T12:07:09;34.40;67.00
19829;DHT22;10075;50.924;4.396;2023-07-08T12:09:44;34.50;65.90
19829;DHT22;10075;50.924;4.396;2023-07-08T12:12:19;34.60;66.60
19829;DHT22;10075;50.924;4.396;2023-07-08T12:14:47;34.70;65.50
19829;DHT22;10075;50.924;4.396;2023-07-08T12:17:15;34.80;64.90
19829;DHT22;10075;50.924;4.396;2023-07-08T12:19:43;34.90;64.20
19829;DHT22;10075;50.924;4.396;2023-07-08T12:22:12;35.00;63.70
19829;DHT22;10075;50.924;4.396;2023-07-08T12:24:41;35.00;64.20
19829;DHT22;10075;50.924;4.396;2023-07-08T12:27:11;35.10;64.70
19829;DHT22;10075;50.924;4.396;2023-07-08T12:29:38;35.30;65.60
19829;DHT22;10075;50.924;4.396;2023-07-08T12:32:08;35.60;66.30
19829;DHT22;10075;50.924;4.396;2023-07-08T12:34:35;35.80;65.70
19829;DHT22;10075;50.924;4.396;2023-07-08T12:37:03;36.20;63.80
19829;DHT22;10075;50.924;4.396;2023-07-08T12:39:33;36.40;63.80
19829;DHT22;10075;50.924;4.396;2023-07-08T12:42:01;36.70;62.70
19829;DHT22;10075;50.924;4.396;2023-07-08T12:44:30;36.70;62.60
19829;DHT22;10075;50.924;4.396;2023-07-08T12:47:00;36.80;63.80
19829;DHT22;10075;50.924;4.396;2023-07-08T12:49:28;36.80;63.50
19829;DHT22;10075;50.924;4.396;2023-07-08T12:51:55;36.80;64.00
19829;DHT22;10075;50.924;4.396;2023-07-08T12:54:22;36.90;63.50
19829;DHT22;10075;50.924;4.396;2023-07-08T12:56:49;37.00;63.20
19829;DHT22;10075;50.924;4.396;2023-07-08T12:59:21;36.90;63.60
19829;DHT22;10075;50.924;4.396;2023-07-08T13:01:49;36.80;65.00
19829;DHT22;10075;50.924;4.396;2023-07-08T13:04:18;36.60;64.00
19829;DHT22;10075;50.924;4.396;2023-07-08T13:06:47;36.10;65.60
19829;DHT22;10075;50.924;4.396;2023-07-08T13:09:37;35.40;67.60
19829;DHT22;10075;50.924;4.396;2023-07-08T13:12:12;34.70;69.80
19829;DHT22;10075;50.924;4.396;2023-07-08T13:14:42;34.30;71.20
19829;DHT22;10075;50.924;4.396;2023-07-08T13:17:12;33.70;72.20
19829;DHT22;10075;50.924;4.396;2023-07-08T13:19:40;33.20;70.80
19829;DHT22;10075;50.924;4.396;2023-07-08T13:22:12;32.80;68.40
19829;DHT22;10075;50.924;4.396;2023-07-08T13:24:41;32.30;73.90
19829;DHT22;10075;50.924;4.396;2023-07-08T13:27:16;31.90;82.00
19829;DHT22;10075;50.924;4.396;2023-07-08T13:29:46;31.30;90.00
19829;DHT22;10075;50.924;4.396;2023-07-08T13:32:13;30.70;92.10
19829;DHT22;10075;50.924;4.396;2023-07-08T13:34:40;30.10;94.00
19829;DHT22;10075;50.924;4.396;2023-07-08T13:37:11;29.40;95.60
19829;DHT22;10075;50.924;4.396;2023-07-08T13:39:42;28.70;97.20
19829;DHT22;10075;50.924;4.396;2023-07-08T13:42:09;28.10;98.40
19829;DHT22;10075;50.924;4.396;2023-07-08T13:44:42;27.80;99.10
19829;DHT22;10075;50.924;4.396;2023-07-08T13:47:21;27.60;99.90
19829;DHT22;10075;50.924;4.396;2023-07-08T13:49:54;27.20;99.90
19829;DHT22;10075;50.924;4.396;2023-07-08T13:52:22;26.70;99.90
19829;DHT22;10075;50.924;4.396;2023-07-08T13:54:51;26.40;99.90
19829;DHT22;10075;50.924;4.396;2023-07-08T13:57:21;26.20;99.90
19829;DHT22;10075;50.924;4.396;2023-07-08T13:59:48;26.40;99.90
19829;DHT22;10075;50.924;4.396;2023-07-08T14:02:19;26.80;99.90
19829;DHT22;10075;50.924;4.396;2023-07-08T14:04:48;27.20;99.90
19829;DHT22;10075;50.924;4.396;2023-07-08T14:07:17;27.70;99.90
19829;DHT22;10075;50.924;4.396;2023-07-08T14:09:45;28.20;99.90
19829;DHT22;10075;50.924;4.396;2023-07-08T14:12:12;28.80;99.90
19829;DHT22;10075;50.924;4.396;2023-07-08T14:14:39;29.50;99.90
19829;DHT22;10075;50.924;4.396;2023-07-08T14:17:09;30.20;99.90
19829;DHT22;10075;50.924;4.396;2023-07-08T14:19:37;30.60;99.90
19829;DHT22;10075;50.924;4.396;2023-07-08T14:22:25;30.70;99.20
19829;DHT22;10075;50.924;4.396;2023-07-08T14:24:54;30.90;98.10
19829;DHT22;10075;50.924;4.396;2023-07-08T14:27:21;31.20;94.70
19829;DHT22;10075;50.924;4.396;2023-07-08T14:29:50;31.60;94.10
19829;DHT22;10075;50.924;4.396;2023-07-08T14:32:20;32.30;92.90
19829;DHT22;10075;50.924;4.396;2023-07-08T14:34:51;32.90;91.20
19829;DHT22;10075;50.924;4.396;2023-07-08T14:37:20;33.60;90.00
19829;DHT22;10075;50.924;4.396;2023-07-08T14:39:47;33.90;86.40
19829;DHT22;10075;50.924;4.396;2023-07-08T14:42:16;34.60;87.10
19829;DHT22;10075;50.924;4.396;2023-07-08T14:44:45;35.30;87.00
19829;DHT22;10075;50.924;4.396;2023-07-08T14:47:15;36.00;87.80
19829;DHT22;10075;50.924;4.396;2023-07-08T14:49:42;37.30;87.20
19829;DHT22;10075;50.924;4.396;2023-07-08T14:52:09;39.70;79.30
19829;DHT22;10075;50.924;4.396;2023-07-08T14:54:38;41.90;71.60
19829;DHT22;10075;50.924;4.396;2023-07-08T14:57:06;43.90;67.60
19829;DHT22;10075;50.924;4.396;2023-07-08T14:59:34;45.50;68.00
19829;DHT22;10075;50.924;4.396;2023-07-08T15:02:11;46.50;64.20
19829;DHT22;10075;50.924;4.396;2023-07-08T15:04:42;47.40;61.10
19829;DHT22;10075;50.924;4.396;2023-07-08T15:07:09;48.00;58.10
19829;DHT22;10075;50.924;4.396;2023-07-08T15:09:37;48.80;56.30
19829;DHT22;10075;50.924;4.396;2023-07-08T15:12:07;49.50;54.00
19829;DHT22;10075;50.924;4.396;2023-07-08T15:14:35;50.30;53.60
19829;DHT22;10075;50.924;4.396;2023-07-08T15:17:04;51.00;51.10
19829;DHT22;10075;50.924;4.396;2023-07-08T15:19:34;51.30;52.00
19829;DHT22;10075;50.924;4.396;2023-07-08T15:22:02;51.70;50.60
19829;DHT22;10075;50.924;4.396;2023-07-08T15:24:29;52.10;49.30
19829;DHT22;10075;50.924;4.396;2023-07-08T15:26:57;52.50;50.20
19829;DHT22;10075;50.924;4.396;2023-07-08T15:29:24;52.80;49.10
19829;DHT22;10075;50.924;4.396;2023-07-08T15:31:52;53.20;48.50
19829;DHT22;10075;50.924;4.396;2023-07-08T15:34:20;53.50;48.00
19829;DHT22;10075;50.924;4.396;2023-07-08T15:36:48;53.90;46.10
19829;DHT22;10075;50.924;4.396;2023-07-08T15:39:16;54.20;45.00
19829;DHT22;10075;50.924;4.396;2023-07-08T15:41:43;54.40;44.00
19829;DHT22;10075;50.924;4.396;2023-07-08T15:44:12;54.70;42.50
19829;DHT22;10075;50.924;4.396;2023-07-08T15:46:42;54.90;42.80